createdAt,value
2019-03-28T00:01:30.151Z,9.77
2019-03-28T00:04:12.166Z,10.93
2019-03-28T00:06:54.252Z,9.60
2019-03-28T00:09:36.656Z,10.37
2019-03-28T00:12:18.179Z,10.50
2019-03-28T00:15:00.630Z,10.97
2019-03-28T00:17:42.477Z,11.30
2019-03-28T00:20:25.553Z,11.23
2019-03-28T00:23:12.168Z,11.37
2019-03-28T00:25:54.404Z,11.30
2019-03-28T00:28:37.049Z,11.23
2019-03-28T00:31:18.968Z,11.70
2019-03-28T00:34:00.587Z,11.17
2019-03-28T00:36:42.215Z,12.27
2019-03-28T00:39:24.663Z,12.47
2019-03-28T00:42:06.886Z,10.97
2019-03-28T00:44:48.819Z,12.33
2019-03-28T00:47:30.357Z,10.90
2019-03-28T00:50:12.182Z,11.80
2019-03-28T00:52:54.185Z,11.47
2019-03-28T00:55:36.391Z,12.07
2019-03-28T00:58:19.496Z,11.20
2019-03-28T01:01:01.318Z,12.50
2019-03-28T01:03:43.600Z,11.47
2019-03-28T01:06:25.043Z,15.27
2019-03-28T01:09:07.435Z,12.77
2019-03-28T01:11:49.160Z,12.47
2019-03-28T01:14:30.903Z,11.63
2019-03-28T01:17:12.698Z,12.23
2019-03-28T01:19:54.328Z,12.03
2019-03-28T01:22:35.883Z,10.93
2019-03-28T01:25:18.221Z,12.63
2019-03-28T01:28:00.566Z,11.80
2019-03-28T01:30:42.428Z,12.00
2019-03-28T01:33:23.860Z,12.67
2019-03-28T01:36:05.375Z,11.53
2019-03-28T01:38:47.546Z,12.53
2019-03-28T01:41:31.468Z,12.60
2019-03-28T01:44:13.371Z,12.77
2019-03-28T01:46:55.485Z,11.47
2019-03-28T01:49:37.404Z,12.80
2019-03-28T01:52:19.311Z,12.57
2019-03-28T01:55:01.057Z,13.27
2019-03-28T01:57:43.476Z,11.90
2019-03-28T02:00:25.650Z,11.83
2019-03-28T02:03:07.847Z,12.27
2019-03-28T02:05:49.610Z,13.20
2019-03-28T02:08:31.744Z,12.70
2019-03-28T02:11:13.492Z,12.83
2019-03-28T02:13:55.435Z,12.10
2019-03-28T02:16:37.772Z,12.73
2019-03-28T02:19:19.859Z,12.83
2019-03-28T02:22:02.165Z,12.73
2019-03-28T02:24:44.066Z,12.80
2019-03-28T02:27:26.072Z,12.13
2019-03-28T02:30:08.361Z,12.77
2019-03-28T02:32:51.102Z,12.37
2019-03-28T02:35:31.728Z,12.63
2019-03-28T02:38:20.812Z,12.13
2019-03-28T02:41:29.337Z,11.97
2019-03-28T02:44:37.859Z,12.73
2019-03-28T02:47:47.559Z,12.93
2019-03-28T02:50:31.031Z,12.70
2019-03-28T02:53:13.673Z,12.33
2019-03-28T02:55:55.595Z,12.03
2019-03-28T02:58:37.903Z,12.30
2019-03-28T03:01:19.679Z,13.30
2019-03-28T03:04:01.577Z,13.10
2019-03-28T03:06:43.376Z,13.07
2019-03-28T03:09:25.783Z,12.03
2019-03-28T03:12:07.635Z,12.03
2019-03-28T03:14:49.568Z,12.30
2019-03-28T03:17:31.613Z,12.07
2019-03-28T03:20:13.951Z,12.80
2019-03-28T03:22:55.703Z,14.23
2019-03-28T03:25:25.201Z,12.30
2019-03-28T03:28:14.316Z,12.90
2019-03-28T03:31:04.759Z,12.27
2019-03-28T03:34:13.345Z,13.10
2019-03-28T03:37:04.192Z,13.10
2019-03-28T03:40:13.778Z,12.67
2019-03-28T03:43:23.172Z,13.90
2019-03-28T03:46:32.458Z,12.73
2019-03-28T03:49:22.870Z,13.70
2019-03-28T03:52:13.381Z,12.47
2019-03-28T03:55:24.600Z,12.90
2019-03-28T03:58:17.065Z,12.13
2019-03-28T04:01:25.072Z,12.87
2019-03-28T04:04:15.549Z,12.80
2019-03-28T04:07:23.860Z,14.30
2019-03-28T04:10:32.343Z,12.77
2019-03-28T04:13:40.705Z,13.27
2019-03-28T04:16:31.375Z,13.47
2019-03-28T04:19:21.793Z,12.57
2019-03-28T04:22:30.136Z,13.33
2019-03-28T04:25:20.605Z,13.00
2019-03-28T04:28:32.037Z,12.33
2019-03-28T04:31:38.848Z,13.47
2019-03-28T04:34:27.995Z,12.88
2019-03-28T04:36:57.535Z,13.37
2019-03-28T04:39:27.174Z,13.43
2019-03-28T04:41:56.915Z,12.87
2019-03-28T04:44:26.349Z,13.73
2019-03-28T04:46:55.973Z,12.83
2019-03-28T04:49:25.445Z,13.93
2019-03-28T04:51:54.996Z,15.03
2019-03-28T04:54:24.550Z,14.70
2019-03-28T04:56:54.039Z,13.53
2019-03-28T04:59:23.511Z,14.17
2019-03-28T05:02:02.594Z,13.03
2019-03-28T05:04:24.199Z,13.80
2019-03-28T05:06:53.728Z,13.70
2019-03-28T05:09:23.255Z,12.37
2019-03-28T05:11:53.049Z,13.03
2019-03-28T05:14:22.574Z,13.97
2019-03-28T05:16:52.072Z,13.87
2019-03-28T05:19:21.538Z,14.07
2019-03-28T05:21:51.046Z,13.80
2019-03-28T05:24:21.219Z,14.30
2019-03-28T05:26:51.029Z,13.30
2019-03-28T05:29:21.309Z,14.03
2019-03-28T05:31:52.683Z,13.27
2019-03-28T05:34:22.269Z,13.87
2019-03-28T05:36:52.271Z,13.83
2019-03-28T05:39:22.183Z,13.80
2019-03-28T05:41:51.630Z,12.67
2019-03-28T05:44:21.371Z,14.20
2019-03-28T05:46:51.061Z,14.03
2019-03-28T05:49:21.346Z,13.05
2019-03-28T05:51:51.037Z,13.97
2019-03-28T05:54:21.381Z,14.85
2019-03-28T05:56:51.189Z,15.63
2019-03-28T05:59:21.464Z,14.90
2019-03-28T06:01:52.156Z,14.70
2019-03-28T06:04:21.631Z,15.23
2019-03-28T06:06:51.070Z,15.13
2019-03-28T06:09:21.390Z,13.35
2019-03-28T06:11:52.961Z,14.60
2019-03-28T06:14:22.616Z,14.50
2019-03-28T06:16:53.235Z,13.83
2019-03-28T06:19:22.698Z,14.57
2019-03-28T06:21:52.123Z,13.90
2019-03-28T06:24:21.581Z,14.23
2019-03-28T06:26:51.087Z,13.97
2019-03-28T06:29:24.037Z,14.07
2019-03-28T06:31:55.423Z,14.27
2019-03-28T06:34:23.715Z,14.30
2019-03-28T06:36:53.211Z,13.97
2019-03-28T06:39:22.719Z,13.10
2019-03-28T06:41:52.302Z,13.97
2019-03-28T06:44:21.831Z,13.40
2019-03-28T06:46:51.367Z,13.23
2019-03-28T06:49:21.511Z,13.10
2019-03-28T06:51:51.137Z,12.83
2019-03-28T06:54:24.189Z,12.53
2019-03-28T06:56:52.490Z,13.30
2019-03-28T06:59:22.307Z,13.97
2019-03-28T07:01:52.110Z,13.40
2019-03-28T07:04:21.773Z,14.50
2019-03-28T07:06:51.450Z,14.40
2019-03-28T07:09:21.494Z,13.30
2019-03-28T07:11:51.222Z,15.57
2019-03-28T07:14:21.507Z,16.27
2019-03-28T07:16:51.158Z,14.97
2019-03-28T07:19:21.451Z,15.18
2019-03-28T07:21:51.164Z,14.40
2019-03-28T07:24:21.423Z,15.78
2019-03-28T07:26:51.550Z,15.47
2019-03-28T07:29:21.494Z,14.50
2019-03-28T07:31:51.196Z,14.57
2019-03-28T07:34:21.432Z,15.00
2019-03-28T07:36:51.264Z,13.87
2019-03-28T07:39:21.430Z,15.30
2019-03-28T07:41:51.139Z,15.20
2019-03-28T07:44:21.470Z,15.40
2019-03-28T07:46:51.258Z,15.00
2019-03-28T07:49:21.477Z,14.28
2019-03-28T07:51:51.253Z,15.70
2019-03-28T07:54:21.550Z,13.48
2019-03-28T07:56:51.336Z,14.70
2019-03-28T07:59:21.501Z,14.25
2019-03-28T08:01:51.270Z,14.67
2019-03-28T08:04:21.538Z,13.08
2019-03-28T08:06:51.863Z,13.33
2019-03-28T08:09:21.608Z,13.07
2019-03-28T08:11:51.340Z,13.00
2019-03-28T08:14:21.575Z,12.90
2019-03-28T08:16:51.301Z,11.97
2019-03-28T08:19:21.546Z,12.47
2019-03-28T08:21:51.266Z,12.93
2019-03-28T08:24:21.558Z,11.45
2019-03-28T08:26:51.288Z,12.23
2019-03-28T08:29:21.660Z,11.78
2019-03-28T08:31:52.964Z,12.10
2019-03-28T08:34:22.545Z,12.40
2019-03-28T08:36:52.526Z,9.30
2019-03-28T08:39:21.981Z,9.80
2019-03-28T08:41:51.518Z,9.40
2019-03-28T08:44:22.829Z,9.43
2019-03-28T08:46:52.592Z,10.47
2019-03-28T08:49:23.389Z,11.07
2019-03-28T08:51:52.974Z,10.53
2019-03-28T08:54:22.616Z,11.53
2019-03-28T08:56:52.422Z,11.77
2019-03-28T08:59:21.964Z,10.10
2019-03-28T09:01:51.603Z,9.50
2019-03-28T09:04:21.550Z,10.40
2019-03-28T09:06:51.416Z,9.70
2019-03-28T09:09:21.662Z,11.43
2019-03-28T09:11:51.421Z,16.73
2019-03-28T09:14:21.709Z,14.33
2019-03-28T09:16:51.506Z,10.73
2019-03-28T09:19:21.783Z,8.60
2019-03-28T09:21:51.477Z,8.00
2019-03-28T09:24:21.551Z,7.47
2019-03-28T09:26:51.343Z,7.83
2019-03-28T09:29:21.657Z,9.50
2019-03-28T09:31:51.427Z,9.27
2019-03-28T09:34:21.693Z,9.03
2019-03-28T09:36:51.499Z,9.27
2019-03-28T09:39:24.711Z,8.88
2019-03-28T09:41:52.912Z,8.77
2019-03-28T09:44:22.634Z,9.40
2019-03-28T09:46:52.418Z,8.90
2019-03-28T09:49:21.872Z,9.33
2019-03-28T09:51:51.481Z,9.47
2019-03-28T09:54:21.746Z,9.70
2019-03-28T09:56:51.388Z,9.67
2019-03-28T10:02:29.612Z,8.93
2019-03-28T10:04:59.045Z,10.33
2019-03-28T10:07:28.597Z,8.97
2019-03-28T10:09:58.460Z,8.50
2019-03-28T10:12:28.088Z,9.37
2019-03-28T10:14:57.535Z,9.50
2019-03-28T10:17:27.401Z,12.73
2019-03-28T10:19:57.007Z,11.03
2019-03-28T10:22:26.734Z,10.00
2019-03-28T10:24:56.100Z,8.93
2019-03-28T10:27:25.718Z,9.03
2019-03-28T10:29:55.192Z,9.77
2019-03-28T10:32:24.794Z,10.73
2019-03-28T10:35:34.517Z,9.67
2019-03-28T10:38:43.197Z,10.47
2019-03-28T10:41:51.510Z,9.40
2019-03-28T10:44:41.282Z,9.73
2019-03-28T10:47:32.061Z,10.57
2019-03-28T10:50:22.539Z,9.20
2019-03-28T10:53:06.653Z,9.77
2019-03-28T10:55:48.619Z,9.33
2019-03-28T10:58:30.340Z,9.13
2019-03-28T11:01:12.196Z,9.70
2019-03-28T11:03:53.978Z,9.13
2019-03-28T11:06:36.364Z,10.20
2019-03-28T11:09:18.374Z,10.80
2019-03-28T11:12:00.299Z,9.53
2019-03-28T11:14:42.355Z,9.17
2019-03-28T11:17:24.708Z,8.87
2019-03-28T11:20:06.473Z,8.87
2019-03-28T11:22:48.504Z,8.27
2019-03-28T11:25:30.106Z,8.30
2019-03-28T11:28:12.321Z,8.30
2019-03-28T11:30:54.675Z,8.23
2019-03-28T11:33:36.348Z,8.93
2019-03-28T11:36:18.894Z,7.93
2019-03-28T11:39:02.819Z,8.23
2019-03-28T11:41:43.858Z,7.83
2019-03-28T11:44:26.201Z,7.93
2019-03-28T11:47:08.083Z,8.20
2019-03-28T11:49:50.382Z,8.23
2019-03-28T11:52:30.244Z,9.17
2019-03-28T11:55:19.152Z,8.63
2019-03-28T11:58:08.125Z,9.60
2019-03-28T12:00:58.677Z,9.20
2019-03-28T12:03:49.239Z,8.53
2019-03-28T12:06:57.560Z,8.93
2019-03-28T12:09:48.284Z,9.33
2019-03-28T12:12:38.777Z,9.83
2019-03-28T12:15:29.270Z,9.40
2019-03-28T12:18:19.792Z,9.60
2019-03-28T12:21:08.798Z,9.37
2019-03-28T12:23:59.377Z,9.90
2019-03-28T12:27:07.834Z,8.23
2019-03-28T12:30:16.577Z,9.27
2019-03-28T12:33:06.682Z,10.27
2019-03-28T12:35:55.718Z,9.70
2019-03-28T12:38:46.318Z,8.70
2019-03-28T12:41:36.874Z,8.67
2019-03-28T12:44:27.360Z,8.57
2019-03-28T12:47:42.210Z,8.03
2019-03-28T12:50:58.231Z,8.80
2019-03-28T12:53:49.492Z,7.83
2019-03-28T12:56:31.912Z,8.10
2019-03-28T13:01:56.670Z,8.20
2019-03-28T13:04:38.222Z,8.53
2019-03-28T13:07:20.432Z,7.70
2019-03-28T13:10:02.377Z,8.07
2019-03-28T13:12:44.269Z,8.27
2019-03-28T13:15:26.481Z,8.23
2019-03-28T13:18:08.353Z,7.70
2019-03-28T13:20:50.578Z,7.97
2019-03-28T13:23:32.975Z,7.70
2019-03-28T13:26:14.862Z,6.67
2019-03-28T13:28:57.252Z,7.37
2019-03-28T13:31:39.882Z,7.33
2019-03-28T13:34:21.778Z,6.87
2019-03-28T13:37:03.384Z,6.10
2019-03-28T13:39:45.892Z,6.90
2019-03-28T13:42:27.772Z,6.00
2019-03-28T13:45:09.829Z,6.43
2019-03-28T13:47:54.362Z,6.63
2019-03-28T13:50:36.946Z,6.73
2019-03-28T13:53:18.946Z,5.50
2019-03-28T13:56:00.916Z,5.13
2019-03-28T13:58:40.827Z,5.10
2019-03-28T14:01:29.873Z,5.20
2019-03-28T14:04:20.351Z,4.57
2019-03-28T14:07:28.674Z,6.23
2019-03-28T14:10:36.966Z,5.93
2019-03-28T14:13:45.642Z,6.00
2019-03-28T14:16:36.340Z,4.97
2019-03-28T14:19:27.247Z,5.20
2019-03-28T14:22:18.285Z,5.33
2019-03-28T14:25:27.705Z,5.13
2019-03-28T14:28:18.339Z,4.57
2019-03-28T14:33:31.118Z,4.93
2019-03-28T14:38:55.296Z,4.77
2019-03-28T14:41:37.129Z,4.13
2019-03-28T14:44:17.309Z,4.13
2019-03-28T14:47:06.387Z,3.80
2019-03-28T14:49:56.898Z,3.93
2019-03-28T14:52:47.691Z,4.63
2019-03-28T14:55:36.762Z,5.03
2019-03-28T14:58:45.347Z,5.77
2019-03-28T15:01:35.805Z,4.40
2019-03-28T15:04:44.469Z,4.43
2019-03-28T15:07:54.325Z,4.50
2019-03-28T15:10:43.607Z,4.47
2019-03-28T15:13:51.941Z,5.67
2019-03-28T15:16:42.093Z,5.28
2019-03-28T15:19:32.576Z,4.40
2019-03-28T15:22:41.652Z,4.85
2019-03-28T15:25:32.628Z,4.43
2019-03-28T15:28:23.184Z,4.77
2019-03-28T15:31:12.475Z,4.60
2019-03-28T15:37:36.603Z,6.43
2019-03-28T15:40:27.219Z,5.57
2019-03-28T15:43:16.550Z,4.73
2019-03-28T15:46:07.075Z,4.90
2019-03-28T15:49:15.602Z,5.13
2019-03-28T15:51:58.646Z,5.30
2019-03-28T15:54:41.572Z,5.80
2019-03-28T15:57:24.203Z,5.30
2019-03-28T16:00:06.122Z,5.60
2019-03-28T16:02:47.866Z,6.07
2019-03-28T16:05:30.100Z,14.37
2019-03-28T16:08:12.030Z,7.23
2019-03-28T16:10:54.535Z,6.87
2019-03-28T16:13:37.680Z,6.30
2019-03-28T16:16:20.159Z,5.27
2019-03-28T16:19:01.607Z,5.30
2019-03-28T16:21:51.026Z,5.20
2019-03-28T16:24:59.659Z,5.53
2019-03-28T16:28:08.204Z,9.70
2019-03-28T16:30:58.772Z,6.43
2019-03-28T16:34:07.661Z,5.60
2019-03-28T16:37:17.139Z,5.13
2019-03-28T16:40:25.640Z,5.87
2019-03-28T16:43:14.706Z,6.20
2019-03-28T16:46:07.624Z,6.17
2019-03-28T16:49:15.148Z,5.90
2019-03-28T16:51:58.231Z,5.80
2019-03-28T16:54:40.685Z,6.47
2019-03-28T16:57:22.510Z,6.60
2019-03-28T17:00:04.248Z,6.97
2019-03-28T17:02:44.227Z,7.60
2019-03-28T17:05:47.040Z,6.90
2019-03-28T17:12:17.416Z,9.37
2019-03-28T17:15:25.942Z,7.17
2019-03-28T17:18:35.698Z,5.90
2019-03-28T17:21:26.302Z,8.53
2019-03-28T17:24:16.750Z,19.23
2019-03-28T17:27:07.319Z,7.60
2019-03-28T17:29:57.873Z,6.60
2019-03-28T17:33:06.201Z,6.10
2019-03-28T17:35:56.966Z,5.47
2019-03-28T17:39:05.661Z,6.07
2019-03-28T17:42:14.022Z,5.10
2019-03-28T17:45:22.354Z,5.40
2019-03-28T17:48:30.993Z,8.03
2019-03-28T17:51:35.706Z,16.73
2019-03-28T17:54:17.317Z,12.40
2019-03-28T17:56:58.827Z,5.80
2019-03-28T17:59:40.788Z,4.60
2019-03-28T18:02:23.293Z,5.13
2019-03-28T18:05:09.670Z,4.20
2019-03-28T18:07:48.225Z,4.70
2019-03-28T18:10:29.989Z,3.93
2019-03-28T18:13:12.117Z,4.10
2019-03-28T18:15:54.088Z,4.57
2019-03-28T18:18:35.877Z,3.53
2019-03-28T18:21:18.411Z,2.63
2019-03-28T18:24:00.120Z,2.80
2019-03-28T18:26:41.877Z,8.03
2019-03-28T18:29:11.436Z,8.33
2019-03-28T18:32:00.547Z,7.47
2019-03-28T18:34:59.458Z,4.53
2019-03-28T18:37:59.398Z,2.67
2019-03-28T18:40:48.197Z,2.17
2019-03-28T18:43:38.827Z,2.73
2019-03-28T18:46:29.373Z,2.10
2019-03-28T18:49:37.803Z,2.37
2019-03-28T18:52:38.826Z,4.20
2019-03-28T18:55:20.951Z,2.47
2019-03-28T18:58:03.139Z,15.93
2019-03-28T19:00:47.998Z,10.27
2019-03-28T19:03:29.125Z,6.10
2019-03-28T19:06:10.876Z,4.57
2019-03-28T19:08:53.724Z,2.72
2019-03-28T19:11:36.174Z,2.13
2019-03-28T19:14:18.197Z,2.33
2019-03-28T19:17:00.215Z,2.80
2019-03-28T19:19:41.718Z,2.87
2019-03-28T19:22:23.894Z,3.20
2019-03-28T19:25:05.967Z,4.20
2019-03-28T19:27:48.124Z,3.75
2019-03-28T19:30:29.581Z,4.33
2019-03-28T19:33:11.368Z,4.00
2019-03-28T19:35:53.035Z,2.57
2019-03-28T19:38:35.011Z,2.80
2019-03-28T19:41:16.674Z,2.90
2019-03-28T19:43:58.463Z,2.57
2019-03-28T19:46:39.903Z,3.20
2019-03-28T19:49:23.365Z,2.80
2019-03-28T19:52:05.351Z,3.13
2019-03-28T19:54:46.894Z,3.53
2019-03-28T19:57:28.891Z,3.70
2019-03-28T20:00:10.938Z,4.83
2019-03-28T20:02:53.421Z,3.33
2019-03-28T20:05:46.915Z,3.50
2019-03-28T20:08:19.162Z,3.63
2019-03-28T20:11:01.323Z,4.60
2019-03-28T20:13:43.110Z,5.50
2019-03-28T20:16:25.879Z,5.43
2019-03-28T20:19:05.851Z,4.13
2019-03-28T20:21:54.994Z,4.10
2019-03-28T20:25:24.130Z,4.07
2019-03-28T20:28:14.808Z,4.67
2019-03-28T20:31:24.501Z,5.70
2019-03-28T20:34:15.007Z,5.20
2019-03-28T20:37:05.433Z,4.60
2019-03-28T20:39:56.179Z,4.20
2019-03-28T20:42:46.640Z,4.40
2019-03-28T20:45:55.200Z,4.43
2019-03-28T20:48:45.638Z,4.37
2019-03-28T20:51:47.499Z,4.87
2019-03-28T20:54:29.227Z,4.90
2019-03-28T20:57:11.480Z,5.33
2019-03-28T20:59:53.603Z,5.60
2019-03-28T21:02:35.559Z,4.50
2019-03-28T21:05:17.240Z,5.20
2019-03-28T21:07:59.289Z,5.40
2019-03-28T21:10:41.328Z,6.50
2019-03-28T21:13:23.278Z,5.57
2019-03-28T21:16:05.126Z,6.17
2019-03-28T21:18:47.405Z,5.80
2019-03-28T21:21:27.420Z,4.97
2019-03-28T21:24:16.389Z,7.67
2019-03-28T21:27:07.238Z,7.20
2019-03-28T21:30:18.545Z,5.97
2019-03-28T21:33:27.156Z,6.03
2019-03-28T21:36:35.503Z,6.00
2019-03-28T21:39:26.260Z,5.50
2019-03-28T21:42:16.675Z,6.07
2019-03-28T21:45:07.130Z,5.70
2019-03-28T21:47:57.564Z,6.07
2019-03-28T21:50:48.246Z,7.10
2019-03-28T21:53:49.745Z,7.00
2019-03-28T21:56:31.907Z,6.23
2019-03-28T21:59:13.817Z,5.73
2019-03-28T22:01:56.016Z,5.97
2019-03-28T22:04:38.111Z,5.50
2019-03-28T22:07:19.760Z,5.70
2019-03-28T22:10:01.457Z,5.70
2019-03-28T22:12:43.315Z,5.40
2019-03-28T22:15:25.497Z,7.23
2019-03-28T22:18:07.790Z,6.97
2019-03-28T22:20:51.567Z,8.60
2019-03-28T22:23:32.879Z,7.50
2019-03-28T22:26:14.255Z,7.13
2019-03-28T22:28:56.416Z,6.53
2019-03-28T22:31:38.863Z,6.07
2019-03-28T22:34:20.539Z,6.53
2019-03-28T22:37:03.670Z,6.13
2019-03-28T22:39:45.796Z,6.20
2019-03-28T22:42:27.532Z,6.70
2019-03-28T22:45:09.449Z,6.37
2019-03-28T22:47:51.212Z,6.10
2019-03-28T22:50:33.134Z,5.43
2019-03-28T22:53:19.250Z,5.77
2019-03-28T22:55:59.308Z,5.67
2019-03-28T22:58:28.918Z,5.83
2019-03-28T23:01:19.472Z,6.00
2019-03-28T23:04:10.266Z,5.50
2019-03-28T23:07:18.600Z,5.70
2019-03-28T23:10:26.908Z,6.00
2019-03-28T23:13:35.371Z,5.70
2019-03-28T23:16:44.045Z,6.17
2019-03-28T23:19:34.594Z,6.20
2019-03-28T23:22:23.552Z,6.37
2019-03-28T23:25:31.871Z,6.00
2019-03-28T23:28:40.359Z,5.80
2019-03-28T23:31:50.757Z,6.53
2019-03-28T23:34:58.681Z,5.90
2019-03-28T23:37:47.623Z,7.03
2019-03-28T23:40:59.151Z,6.47
2019-03-28T23:44:07.509Z,6.17
2019-03-28T23:46:56.666Z,6.33
2019-03-28T23:49:47.678Z,6.00
2019-03-28T23:52:31.096Z,6.57
2019-03-28T23:55:13.514Z,6.27
2019-03-28T23:57:56.252Z,7.40
